createdAt,value
2023-01-11T00:03:07.779Z,42.28
2023-01-11T00:13:09.724Z,39.85
2023-01-11T00:23:11.914Z,37.50
2023-01-11T00:33:13.793Z,49.58
2023-01-11T00:43:15.628Z,58.45
2023-01-11T00:53:17.586Z,43.97
2023-01-11T01:03:19.429Z,54.88
2023-01-11T01:13:21.283Z,49.67
2023-01-11T01:23:23.194Z,37.60
2023-01-11T01:33:25.265Z,38.97
2023-01-11T01:43:48.822Z,79.43
2023-01-11T01:53:53.631Z,51.75
2023-01-11T02:03:55.557Z,74.20
2023-01-11T02:14:02.783Z,52.67
2023-01-11T02:24:16.440Z,56.55
2023-01-11T02:34:45.712Z,51.38
2023-01-11T02:45:06.191Z,52.80
2023-01-11T02:55:09.655Z,50.63
2023-01-11T03:05:13.376Z,69.35
2023-01-11T03:15:30.718Z,69.95
2023-01-11T03:25:47.758Z,111.45
2023-01-11T03:36:31.593Z,77.78
2023-01-11T03:46:52.825Z,104.60
2023-01-11T03:57:05.779Z,97.50
2023-01-11T04:07:07.632Z,114.78
2023-01-11T04:17:09.430Z,106.18
2023-01-11T04:27:11.282Z,112.43
2023-01-11T04:37:13.169Z,94.00
2023-01-11T04:47:16.081Z,78.22
2023-01-11T04:57:18.303Z,56.42
2023-01-11T05:07:20.203Z,73.50
2023-01-11T05:17:22.030Z,76.60
2023-01-11T05:27:24.588Z,101.32
2023-01-11T05:37:26.458Z,76.40
2023-01-11T05:47:28.402Z,89.53
2023-01-11T05:57:30.252Z,83.82
2023-01-11T06:07:32.125Z,89.00
2023-01-11T06:17:33.996Z,68.82
2023-01-11T06:27:35.789Z,57.72
2023-01-11T06:37:40.747Z,88.57
2023-01-11T06:47:42.631Z,81.35
2023-01-11T06:57:45.604Z,77.40
2023-01-11T07:07:49.021Z,61.63
2023-01-11T07:17:55.590Z,56.08
2023-01-11T07:28:02.398Z,44.58
2023-01-11T07:38:04.276Z,56.63
2023-01-11T07:48:07.090Z,58.15
2023-01-11T07:58:12.160Z,80.13
2023-01-11T08:08:14.337Z,86.70
2023-01-11T08:18:16.266Z,91.45
2023-01-11T08:28:18.195Z,79.43
2023-01-11T08:38:20.066Z,85.28
2023-01-11T08:48:22.059Z,71.82
2023-01-11T08:58:24.089Z,104.97
2023-01-11T09:08:26.494Z,108.38
2023-01-11T09:18:28.279Z,83.65
2023-01-11T09:28:30.103Z,69.88
2023-01-11T09:38:32.274Z,59.90
2023-01-11T09:48:43.751Z,84.18
2023-01-11T09:59:20.610Z,64.43
2023-01-11T10:20:05.675Z,54.60
2023-01-11T10:30:22.694Z,41.28
2023-01-11T10:40:42.831Z,33.95
2023-01-11T11:01:04.458Z,14.38
2023-01-11T11:11:15.687Z,9.15
2023-01-11T11:21:27.990Z,20.52
2023-01-11T11:31:31.382Z,9.63
2023-01-11T11:41:50.074Z,58.85
2023-01-11T11:51:53.194Z,11.65
2023-01-11T12:02:02.050Z,5.47
2023-01-11T12:12:04.483Z,11.13
2023-01-11T12:22:17.116Z,12.82
2023-01-11T12:32:25.757Z,5.32
2023-01-11T12:42:56.914Z,5.93
2023-01-11T12:53:27.101Z,8.23
2023-01-11T13:04:06.229Z,9.35
2023-01-11T13:14:22.602Z,7.38
2023-01-11T13:24:28.888Z,13.55
2023-01-11T13:35:28.551Z,8.77
2023-01-11T13:45:54.149Z,7.95
2023-01-11T13:56:06.600Z,16.63
2023-01-11T14:06:23.185Z,17.58
2023-01-11T14:16:54.277Z,19.27
2023-01-11T14:27:05.054Z,14.73
2023-01-11T14:37:42.523Z,13.45
2023-01-11T14:47:59.530Z,27.73
2023-01-11T14:58:27.051Z,21.85
2023-01-11T15:08:51.009Z,22.90
2023-01-11T15:18:53.905Z,16.80
2023-01-11T15:28:59.217Z,22.25
2023-01-11T15:39:05.939Z,34.65
2023-01-11T15:49:41.686Z,19.10
2023-01-11T15:59:58.868Z,26.75
2023-01-11T16:10:10.171Z,40.03
2023-01-11T16:20:25.401Z,31.85
2023-01-11T16:30:28.647Z,25.77
2023-01-11T16:40:31.574Z,23.85
2023-01-11T16:50:34.546Z,36.90
2023-01-11T17:00:38.787Z,33.42
2023-01-11T17:10:41.332Z,20.80
2023-01-11T17:20:43.215Z,12.38
2023-01-11T17:30:47.577Z,24.83
2023-01-11T17:40:49.968Z,28.52
2023-01-11T17:50:54.577Z,47.13
2023-01-11T18:01:05.829Z,24.45
2023-01-11T18:11:08.373Z,32.45
2023-01-11T18:21:25.794Z,17.17
2023-01-11T18:31:27.741Z,15.90
2023-01-11T18:41:30.066Z,17.13
2023-01-11T18:51:35.679Z,11.93
2023-01-11T19:01:52.658Z,18.60
2023-01-11T19:12:00.499Z,26.05
2023-01-11T19:22:02.999Z,13.65
2023-01-11T19:32:05.139Z,17.02
2023-01-11T19:42:07.011Z,17.13
2023-01-11T19:52:10.926Z,14.73
2023-01-11T20:02:16.034Z,25.85
2023-01-11T20:12:17.988Z,22.58
2023-01-11T20:22:25.320Z,21.20
2023-01-11T20:32:41.991Z,15.52
2023-01-11T20:42:45.854Z,16.95
2023-01-11T20:52:51.640Z,13.43
2023-01-11T21:02:53.645Z,13.55
2023-01-11T21:13:03.599Z,11.75
2023-01-11T21:23:06.563Z,13.43
2023-01-11T21:33:08.394Z,16.83
2023-01-11T21:43:10.674Z,13.10
2023-01-11T21:53:13.114Z,13.55
2023-01-11T22:03:15.093Z,18.42
2023-01-11T22:13:16.878Z,16.65
2023-01-11T22:23:18.823Z,10.68
2023-01-11T22:33:20.675Z,10.15
2023-01-11T22:43:30.342Z,6.70
2023-01-11T22:53:40.949Z,22.40
2023-01-11T23:03:43.319Z,8.45
2023-01-11T23:13:45.259Z,8.10
2023-01-11T23:23:47.305Z,11.55
2023-01-11T23:33:54.603Z,15.85
2023-01-11T23:43:56.653Z,9.70
2023-01-11T23:53:59.013Z,6.55
